메인 페이지
METAR-TAF:

METAR-TAF

공항 :

니노이 아키노 국제공항

마닐라, 필리핀

위도: 14-31N, 경도: 121-00E, 고도: 14m

현재 날씨관측

예보는 35분 전, 05:00시(UTC)에 발표되었습니다.
남남동10kt동북동풍과 풍을 오가는
온도 34°C
습도 53%
기압 1010 hPa
시정 10km 이상
고도 2500ft 상공 구름 조금

METAR: RPLL 130500Z 15010KT 070V190 9999 FEW025 34/23 Q1010 NOSIG RMK A2983

시각: 13:35 (05:35 UTC)

예보

예보는 6 시간 35분 전, 23:00시(UTC)에 발표되었습니다.
예보 대상 시간: 13일 00시부터 14일 06시까지 (UTC)
동남동10kt
시정 10km 이상
고도 2500ft 상공 구름 조금
일시적
13일 03시부터 13일 09시까지 (UTC)
남동10kt, 순간 최대 풍속 22kt

TAF: RPLL 122300Z 1300/1406 12010KT 9999 FEW025 TX35/1306Z TN27/1321Z TEMPO 1303/1309 13010G22KT

4,000개 이상의 공항 관측 자료 및 예보 (METAR 및 TAF 보고).

지도상에서 검색 가능한 기상관측소가 노란 점과 빨간 점으로 표시되어 있습니다.

기상관측소 명을 보려면 표시 위로 마우스를 이동하세요.

날씨 관측과 예보를 보려면 클릭하세요.

지도 변경 : 확대하려면 엑스 표시가 있는 녹색 버튼, 축소하려면 빼기 표시가 있는 녹색 버튼, 다음 페이지의 지도를 보려면 녹색 화살표를 클릭하세요.


METAR-TAF: